| Record Date MM/DD/YYYY | Record Julian Date NNN day of the year | Air Temperature Max (Degrees Fahrenheit F) | Time Max Air Temperature HH:MM:SS This is the time of max air temperature standard time. | Air Temperature Min (Degrees Fahrenheit F) | Time Min Air Temperature HH:MM:SS This is the time of min air temperature standard time. | Air Temperature Observed (Degrees Fahrenheit F) This is an instantaneous reading for air temperature at 7:00:00 standard time. | Relative Humidity Max (Percent) | Time Max Relative Humidity HH:MM:SS This is the time of max relative humidity standard time. | Relative Humidity Min (Percent) | Time Min Relative Humidity HH:MM:SS This is the time of min relative humidity standard time. | Relative Humidity Observed (Percent) This is an instantaneous reading at 7:00:00 standard time. | Precipitation (Inches n.nn) total rain fall that occurred for the day. | Pan Evaporation (Inches n.nn) total evaporation that occured for the day. | Wind Run (Miles) Wind travel for the day. | Wind Speed (Miles Per Hour) Resultant / Average speed for the day. | Wind Direction (Degrees) Resultant Direction for the day | Solar Radiation (Langley's) that occurred for the day. | Soil Temperature Max at 2 inch depth (Degrees Fahrenheit F) that occurred during the day. | Time Max Soil temperature at 2 inches HH:MM:SS This is the time of max 2 inch soil temperature standard time. | Soil Temperature Min at 2 inch depth (Degrees Fahrenheit F) that occurred during the day. | Time Min Soil temperature at 2 inches HH:MM:SS This is the time of min 2 inch soil temperature standard time. | Soil Temperature Observed at 2 inch depth (Degrees Fahrenheit F) This is an instantaneous reading 2 inch soil temperature at 7:00:00 standard time. | Soil Temperature Max at 4 inch depth (Degrees Fahrenheit F) that occurred during the day. | Time Max Soil temperature at 4 inches HH:MM:SS This is the time of max 4 inch soil temperature standard time. | Soil Temperature Min at 4 inch depth (Degrees Fahrenheit F) that occurred during the day. | Time Min Soil temperature at 4 inches HH:MM:SS This is the time of min 4 inch soil temperature standard time. | Soil Temperature Observed at 4 inch depth (Degrees Fahrenheit F) This is an instantaneous reading 4 inch soil temperature at 7:00:00 standard time. | DD50 Degree Days 50 Fahrenheit. | Adjusted DD50 Degree Days 50 Fahrenheit adjusted for latitude. | DD60 Degree Days 60 Fahrenheit. |
|---|---|---|---|---|---|---|---|---|---|---|---|---|---|---|---|---|---|---|---|---|---|---|---|---|---|---|---|---|---|---|
| 04/02/2026 | 93 | 86 | 13:35:01 | 68 | 5:50:02 | 70 | 94 | 5:52:04 | 52 | 15:57:02 | 90 | 0 | 260 | 10.8 | 354 | 191 | 86 | 13:45:04 | 68 | 6:11:02 | 69 | 81 | 14:27:04 | 69 | 6:46:04 | 70 | 27 | 26.4 | 17 | |
| 04/03/2026 | 94 | 90 | 14:17:05 | 65 | 5:45:01 | 70 | 97 | 6:03:03 | 38 | 14:09:02 | 92 | 0 | 209 | 8.7 | 348 | 311 | 91 | 14:31:00 | 67 | 6:12:02 | 68 | 85 | 15:36:05 | 69 | 6:37:03 | 69 | 27.5 | 26.43 | 17.5 | |
| 04/04/2026 | 95 | 83 | 11:38:00 | 60 | 23:59:05 | 71 | 100 | 16:51:02 | 63 | 11:58:02 | 86 | 1.42 | 180 | 7.5 | 2 | 170 | 84 | 12:04:03 | 66 | 23:59:02 | 71 | 80 | 15:32:05 | 68 | 23:59:03 | 72 | 21.5 | 21.97 | 11.5 | |
| 04/05/2026 | 96 | 64 | 16:52:03 | 53 | 6:35:03 | 54 | 99 | 0:01:00 | 54 | 17:02:01 | 76 | 0.01 | 226 | 9.4 | 177 | 0 | 75 | 13:12:03 | 55 | 23:59:05 | 58 | 73 | 14:29:00 | 59 | 0:00:00 | 62 | 8.5 | 9 | 0 | |
| 04/06/2026 | 97 | 70 | 16:51:04 | 49 | 5:52:02 | 50 | 96 | 23:22:00 | 30 | 14:51:01 | 73 | 0 | 91 | 3.8 | 217 | 337 | 71 | 13:24:00 | 51 | 6:04:01 | 52 | 68 | 15:21:03 | 55 | 6:28:03 | 55 | 9.5 | 10.04 | 0 | |
| 04/07/2026 | 98 | 77 | 14:28:02 | 48 | 5:48:05 | 55 | 92 | 0:00:00 | 32 | 14:10:02 | 73 | 0 | 90 | 3.8 | 247 | 349 | 75 | 14:34:03 | 50 | 6:02:03 | 52 | 72 | 15:30:02 | 54 | 6:25:04 | 54 | 12.5 | 13.07 | 2.5 | |
| 04/08/2026 | 99 | 80 | 13:51:02 | 56 | 5:24:01 | 58 | 69 | 0:52:03 | 27 | 16:17:00 | 64 | 0 | 166 | 6.9 | 309 | 379 | 84 | 14:02:00 | 54 | 5:52:02 | 55 | 77 | 15:19:00 | 57 | 6:15:04 | 57 | 18 | 18.61 | 8 | |
| 04/09/2026 | 100 | 82 | 15:35:00 | 57 | 5:24:04 | 61 | 73 | 20:26:05 | 35 | 14:19:05 | 59 | 0 | 187 | 7.8 | 323 | 491 | 89 | 14:19:00 | 56 | 5:51:01 | 57 | 82 | 15:16:02 | 59 | 6:30:03 | 59 | 19.5 | 20.14 | 9.5 | |
| 04/10/2026 | 101 | 84 | 15:39:03 | 56 | 5:19:02 | 61 | 84 | 21:42:02 | 34 | 15:40:00 | 74 | 0 | 90 | 3.8 | 329 | 411 | 92 | 13:15:04 | 59 | 5:55:03 | 60 | 84 | 14:29:05 | 62 | 6:24:00 | 62 | 20 | 20.68 | 10 | |
| 04/11/2026 | 102 | 87 | 15:08:02 | 58 | 5:40:03 | 64 | 91 | 5:43:04 | 32 | 15:19:02 | 82 | 0 | 70 | 2.9 | 342 | 441 | 93 | 15:09:00 | 61 | 5:48:03 | 63 | 86 | 15:37:05 | 64 | 6:09:02 | 64 | 22.5 | 23.21 | 12.5 | |
| 04/12/2026 | 103 | 87 | 14:26:00 | 58 | 5:42:00 | 66 | 89 | 5:43:05 | 33 | 15:40:03 | 77 | 0 | 199 | 8.3 | 356 | 372 | 92 | 14:02:05 | 62 | 5:51:04 | 64 | 85 | 15:17:03 | 65 | 6:17:03 | 65 | 22.5 | 23.24 | 12.5 | |
| 04/13/2026 | 104 | 85 | 15:18:02 | 67 | 5:19:04 | 69 | 89 | 5:20:04 | 47 | 16:14:02 | 86 | 0 | 190 | 7.9 | 0 | 234 | 90 | 13:03:00 | 69 | 5:33:01 | 70 | 83 | 13:23:05 | 70 | 6:18:02 | 70 | 26 | 26.78 | 16 | |
| 04/14/2026 | 105 | 88 | 14:58:02 | 65 | 5:47:01 | 69 | 94 | 5:49:02 | 41 | 14:42:05 | 87 | 0 | 161 | 6.7 | 3 | 402 | 96 | 14:08:04 | 67 | 6:03:02 | 68 | 89 | 14:54:05 | 69 | 6:34:03 | 69 | 26.5 | 26.81 | 16.5 | |
| 04/15/2026 | 106 | 88 | 14:05:03 | 64 | 5:03:04 | 68 | 90 | 5:32:02 | 34 | 12:50:04 | 82 | 0 | 179 | 7.4 | 4 | 275 | 95 | 14:12:03 | 67 | 5:50:03 | 69 | 88 | 15:13:01 | 70 | 6:11:00 | 70 | 26 | 26.85 | 16 | |
| 04/16/2026 | 107 | 89 | 15:01:01 | 67 | 5:19:00 | 72 | 88 | 5:41:00 | 38 | 14:15:05 | 80 | 0 | 142 | 5.9 | 15 | 291 | 96 | 14:03:02 | 70 | 5:38:05 | 71 | 90 | 14:56:03 | 72 | 6:24:02 | 72 | 28 | 26.88 | 18 | |
| 04/17/2026 | 108 | 91 | 12:56:05 | 67 | 3:37:02 | 72 | 93 | 5:36:04 | 41 | 15:10:02 | 86 | 0 | 155 | 6.5 | 4 | 343 | 93 | 13:03:00 | 70 | 3:42:00 | 72 | 88 | 15:30:02 | 72 | 5:51:02 | 72 | 29 | 26.91 | 19 | |
| 04/18/2026 | 109 | 81 | 10:41:02 | 51 | 22:27:01 | 70 | 98 | 13:24:04 | 60 | 11:04:01 | 82 | 0.17 | 186 | 7.7 | 79 | 58 | 85 | 11:05:05 | 59 | 23:46:00 | 72 | 80 | 11:30:01 | 64 | 0:00:00 | 73 | 16 | 16.95 | 6 | |
| 04/19/2026 | 110 | 71 | 16:40:04 | 48 | 23:42:03 | 51 | 100 | 2:36:02 | 30 | 16:24:05 | 95 | 0 | 89 | 3.7 | 204 | 98 | 85 | 14:30:02 | 55 | 5:40:03 | 57 | 79 | 15:20:04 | 60 | 6:36:03 | 60 | 9.5 | 10.48 | 0 | |
| 04/20/2026 | 111 | 79 | 16:22:04 | 43 | 5:17:01 | 59 | 100 | 4:16:02 | 27 | 11:18:02 | 70 | 0 | 51 | 2.1 | 334 | 326 | 89 | 14:45:04 | 53 | 5:46:00 | 56 | 83 | 15:50:01 | 58 | 6:19:03 | 58 | 11 | 12.01 | 1 | |
| 04/21/2026 | 112 | 83 | 13:35:01 | 46 | 4:54:00 | 59 | 100 | 1:10:05 | 24 | 13:04:00 | 70 | 0 | 103 | 4.3 | 347 | 364 | 87 | 14:39:02 | 57 | 5:35:05 | 59 | 82 | 15:48:04 | 60 | 6:08:02 | 61 | 14.5 | 15.54 | 4.5 | |
| 04/22/2026 | 113 | 86 | 13:48:04 | 57 | 0:17:04 | 66 | 84 | 2:23:01 | 28 | 13:27:05 | 65 | 0 | 102 | 4.3 | 346 | 294 | 94 | 14:26:05 | 63 | 6:02:05 | 66 | 87 | 15:08:02 | 66 | 6:23:02 | 66 | 21.5 | 22.58 | 11.5 | |
| 04/23/2026 | 114 | 87 | 15:19:03 | 62 | 0:17:01 | 67 | 91 | 5:58:01 | 31 | 14:54:02 | 89 | 0 | 169 | 7.1 | 344 | 394 | 95 | 14:06:00 | 67 | 3:35:01 | 69 | 88 | 15:14:03 | 69 | 5:49:00 | 69 | 24.5 | 25.61 | 14.5 | |
| 04/24/2026 | 115 | 84 | 12:15:01 | 62 | 13:46:01 | 67 | 100 | 18:41:05 | 56 | 13:16:00 | 87 | 1.13 | 141 | 5.9 | 341 | 148 | 88 | 12:22:03 | 67 | 23:54:03 | 70 | 83 | 13:14:05 | 68 | 23:59:05 | 70 | 23 | 24.14 | 13 | |
| 04/25/2026 | 116 | 82 | 17:14:04 | 62 | 5:48:03 | 64 | 100 | 2:05:03 | 58 | 17:14:03 | 98 | 0.38 | 58 | 2.4 | 24 | 226 | 89 | 14:53:05 | 64 | 5:38:03 | 66 | 84 | 15:34:00 | 66 | 6:08:05 | 67 | 22 | 23.17 | 12 | |
| 04/26/2026 | 117 | 87 | 15:45:05 | 65 | 6:29:02 | 67 | 99 | 5:31:05 | 47 | 13:12:01 | 92 | 0.04 | 71 | 2.9 | 347 | 332 | 92 | 13:15:01 | 68 | 6:39:01 | 69 | 86 | 14:43:01 | 70 | 6:54:00 | 70 | 26 | 27.2 | 16 | |
| 04/27/2026 | 118 | 86 | 14:06:01 | 69 | 4:42:01 | 74 | 97 | 5:12:05 | 67 | 14:08:04 | 90 | 0 | 166 | 6.9 | 359 | 226 | 85 | 12:29:04 | 70 | 4:59:01 | 72 | 81 | 13:33:00 | 71 | 6:14:00 | 72 | 27.5 | 27.23 | 17.5 | |
| 04/28/2026 | 119 | 84 | 12:44:03 | 67 | 23:02:03 | 73 | 100 | 14:59:03 | 73 | 12:38:04 | 90 | 0.73 | 131 | 5.5 | 3 | 74 | 84 | 12:51:03 | 69 | 23:51:00 | 72 | 79 | 13:13:02 | 71 | 23:59:01 | 72 | 25.5 | 26.76 | 15.5 | |
| 04/29/2026 | 120 | 74 | 7:20:05 | 64 | 0:00:00 | 73 | 99 | 3:03:02 | 80 | 15:08:04 | 94 | 0.02 | 107 | 4.5 | 170 | 0 | 79 | 12:50:02 | 66 | 23:59:00 | 72 | 76 | 13:48:00 | 69 | 23:59:04 | 71 | 19 | 20.29 | 9 | |
| 04/30/2026 | 121 | 70 | 12:28:00 | 59 | 7:13:00 | 59 | 98 | 2:31:05 | 53 | 13:08:00 | 84 | 0.19 | 98 | 4.1 | 217 | 0 | 78 | 12:34:02 | 61 | 23:59:03 | 63 | 74 | 13:15:03 | 64 | 23:59:03 | 65 | 14.5 | 15.83 | 4.5 | |
| 05/01/2026 | 122 | 63 | 14:55:02 | 56 | 4:55:05 | 57 | 98 | 20:30:00 | 60 | 13:58:03 | 83 | 0 | 57 | 2.4 | 206 | 0 | 65 | 13:25:00 | 59 | 23:57:05 | 60 | 65 | 15:32:01 | 61 | 23:58:02 | 62 | 9.5 | 10.86 | 0 | |
| Average | 81.6 | 58.97 | 64.53 | 93.4 | 44.17 | 81.87 | 0.14 | 137.47 | 251.23 | 86.57 | 62.33 | 64.73 | 81.27 | 65.03 | 65.93 | 20.28 | 20.86 | 10.38 | ||||||||||||
| Total | 4.09 | 608.5 | 625.67 | 311.5 |